Time;durP1;ratioP1;P1;durP2;ratioP2;P2;SDS_P1;SDS_P2;PMS_P1;PMS_P2;Temp;Humidity;BMP_temperature;BMP_pressure;BME280_temperature;BME280_humidity;BME280_pressure;Samples;Min_cycle;Max_cycle;Signal;HPM_P1;HPM_P2
2022/07/17 00:02:33;;;;;;;8.80;4.70;;;;;;;;;;7654606;23;20017;-55
2022/07/17 00:05:35;;;;;;;6.65;4.18;;;;;;;;;;7656224;23;20083;-50
2022/07/17 00:08:35;;;;;;;8.10;4.50;;;;;;;;;;7666061;23;20021;-56
2022/07/17 00:11:36;;;;;;;9.18;4.55;;;;;;;;;;7654701;23;20103;-57
2022/07/17 00:14:36;;;;;;;10.27;5.13;;;;;;;;;;7656279;23;20108;-50
2022/07/17 00:17:38;;;;;;;8.55;4.50;;;;;;;;;;7653183;23;20475;-52
2022/07/17 00:20:38;;;;;;;10.13;4.70;;;;;;;;;;7655672;23;20057;-53
2022/07/17 00:23:39;;;;;;;9.35;5.00;;;;;;;;;;7653050;23;20025;-47
2022/07/17 00:26:40;;;;;;;10.63;4.90;;;;;;;;;;7667515;23;20100;-55
2022/07/17 00:29:40;;;;;;;13.73;4.82;;;;;;;;;;7658507;23;20330;-56
2022/07/17 00:32:41;;;;;;;13.30;5.40;;;;;;;;;;7657645;23;20025;-56
2022/07/17 00:35:42;;;;;;;9.40;5.07;;;;;;;;;;7656564;23;20107;-52
2022/07/17 00:38:43;;;;;;;10.60;5.23;;;;;;;;;;7654893;23;20017;-50
2022/07/17 00:41:45;;;;;;;12.07;5.45;;;;;;;;;;7654317;23;20322;-57
2022/07/17 00:44:46;;;;;;;15.80;6.07;;;;;;;;;;7655130;23;20646;-52
2022/07/17 00:47:59;;;;;;;9.20;5.45;;;;;;;;;;7655805;23;20017;-57
2022/07/17 00:50:59;;;;;;;9.32;4.65;;;;;;;;;;7656008;23;20132;-56
2022/07/17 00:54:02;;;;;;;7.63;5.43;;;;;;;;;;7654708;23;20650;-58
2022/07/17 00:57:06;;;;;;;9.63;5.50;;;;;;;;;;7655497;23;20472;-57
2022/07/17 01:00:10;;;;;;;10.52;5.68;;;;;;;;;;7655543;23;20025;-57
2022/07/17 01:03:11;;;;;;;8.55;5.60;;;;;;;;;;7651589;23;20520;-58
2022/07/17 01:06:11;;;;;;;11.65;5.70;;;;;;;;;;7655102;23;20067;-54
2022/07/17 01:09:12;;;;;;;12.98;5.65;;;;;;;;;;7654769;23;20129;-55
2022/07/17 01:12:13;;;;;;;9.55;5.30;;;;;;;;;;7655607;23;20429;-51
2022/07/17 01:15:15;;;;;;;11.55;5.72;;;;;;;;;;7654559;23;20040;-54
2022/07/17 01:18:15;;;;;;;8.60;5.70;;;;;;;;;;7655068;23;20096;-59
2022/07/17 01:21:16;;;;;;;10.40;5.80;;;;;;;;;;7655019;23;20032;-52
2022/07/17 01:24:19;;;;;;;11.70;5.95;;;;;;;;;;7654254;23;20505;-58
2022/07/17 01:27:20;;;;;;;9.52;6.10;;;;;;;;;;7657535;23;20025;-58
2022/07/17 01:30:21;;;;;;;11.68;6.38;;;;;;;;;;7660152;23;20017;-56
2022/07/17 01:33:21;;;;;;;10.07;6.10;;;;;;;;;;7654917;23;20017;-57
2022/07/17 01:36:23;;;;;;;10.88;6.03;;;;;;;;;;7654719;23;20272;-58
2022/07/17 01:42:47;;;;;;;9.38;5.80;;;;;;;;;;7666924;23;20244;-54
2022/07/17 01:45:48;;;;;;;9.93;5.70;;;;;;;;;;7673049;23;20465;-51
2022/07/17 01:48:48;;;;;;;13.10;5.82;;;;;;;;;;7673476;23;20080;-52
2022/07/17 01:51:49;;;;;;;9.90;6.13;;;;;;;;;;7671890;23;20029;-55
2022/07/17 01:54:50;;;;;;;11.95;6.90;;;;;;;;;;7674037;23;20056;-55
2022/07/17 01:57:51;;;;;;;9.15;5.95;;;;;;;;;;7674079;23;20021;-55
2022/07/17 02:00:52;;;;;;;11.20;5.85;;;;;;;;;;7680659;23;20092;-58
2022/07/17 02:03:52;;;;;;;11.37;5.80;;;;;;;;;;7667125;23;20621;-58
2022/07/17 02:06:54;;;;;;;13.40;6.07;;;;;;;;;;7668552;23;20247;-54
2022/07/17 02:09:55;;;;;;;;;;;;;;;;;;7681411;23;20082;-57
2022/07/17 02:12:57;;;;;;;11.60;6.28;;;;;;;;;;7669234;23;19952;-52
2022/07/17 02:15:57;;;;;;;13.38;6.38;;;;;;;;;;7666908;23;20733;-56
2022/07/17 02:18:58;;;;;;;9.93;6.43;;;;;;;;;;7668578;23;20017;-57
2022/07/17 02:21:58;;;;;;;12.88;6.50;;;;;;;;;;7667799;23;20021;-53
2022/07/17 02:24:59;;;;;;;13.80;6.57;;;;;;;;;;7668716;23;20488;-55
2022/07/17 02:27:59;;;;;;;11.65;6.78;;;;;;;;;;7668042;23;20140;-50
2022/07/17 02:31:00;;;;;;;11.50;6.90;;;;;;;;;;7664687;23;20025;-55
2022/07/17 02:34:01;;;;;;;12.90;7.20;;;;;;;;;;7665392;23;20019;-51
2022/07/17 02:37:01;;;;;;;13.38;7.15;;;;;;;;;;7666681;23;20020;-54
2022/07/17 02:40:04;;;;;;;13.25;6.65;;;;;;;;;;7679738;23;20448;-57
2022/07/17 02:43:04;;;;;;;13.02;6.57;;;;;;;;;;7667685;23;20099;-54
2022/07/17 02:46:05;;;;;;;13.55;7.75;;;;;;;;;;7667671;23;20337;-54
2022/07/17 02:49:06;;;;;;;12.13;7.20;;;;;;;;;;7665003;23;20136;-57
2022/07/17 02:52:06;;;;;;;13.77;7.03;;;;;;;;;;7665775;23;20025;-56
2022/07/17 02:55:07;;;;;;;16.63;7.40;;;;;;;;;;7640309;23;20032;-53
2022/07/17 02:58:08;;;;;;;12.18;7.05;;;;;;;;;;7667798;23;20112;-57
2022/07/17 03:01:08;;;;;;;13.82;6.88;;;;;;;;;;7664691;23;20013;-53
2022/07/17 03:04:09;;;;;;;10.70;6.47;;;;;;;;;;7666350;23;20017;-56
2022/07/17 03:07:10;;;;;;;12.30;6.93;;;;;;;;;;7663913;23;20017;-58
2022/07/17 03:10:11;;;;;;;11.18;7.13;;;;;;;;;;7665454;23;20103;-52
2022/07/17 03:13:11;;;;;;;13.85;7.63;;;;;;;;;;7667190;23;20348;-57
2022/07/17 03:16:12;;;;;;;12.73;7.78;;;;;;;;;;7667917;23;20483;-56
2022/07/17 03:19:12;;;;;;;13.82;7.70;;;;;;;;;;7666357;23;20031;-52
2022/07/17 03:22:13;;;;;;;11.57;6.93;;;;;;;;;;7664746;23;20457;-56
2022/07/17 03:25:14;;;;;;;10.80;7.18;;;;;;;;;;7666022;23;20024;-53
2022/07/17 03:28:14;;;;;;;12.73;6.88;;;;;;;;;;7665033;23;20039;-52
2022/07/17 03:31:15;;;;;;;12.20;7.90;;;;;;;;;;7665534;23;20482;-57
2022/07/17 03:34:16;;;;;;;13.65;8.25;;;;;;;;;;7665805;23;20017;-54
2022/07/17 03:37:16;;;;;;;13.02;8.10;;;;;;;;;;7664917;23;20075;-56
2022/07/17 03:40:17;;;;;;;17.50;8.90;;;;;;;;;;7664568;23;20025;-49
2022/07/17 03:43:17;;;;;;;14.88;8.65;;;;;;;;;;7665048;23;20088;-50
2022/07/17 03:46:18;;;;;;;13.77;7.53;;;;;;;;;;7665060;23;20032;-57
2022/07/17 03:49:18;;;;;;;12.55;7.18;;;;;;;;;;7668869;23;20089;-48
2022/07/17 03:52:19;;;;;;;14.55;8.05;;;;;;;;;;7664618;23;20392;-49
2022/07/17 03:55:19;;;;;;;11.57;7.15;;;;;;;;;;7669102;23;20095;-49
2022/07/17 03:58:20;;;;;;;10.60;6.55;;;;;;;;;;7667271;23;20037;-56
2022/07/17 04:01:21;;;;;;;11.15;6.70;;;;;;;;;;7665247;23;20107;-48
2022/07/17 04:04:21;;;;;;;9.95;6.10;;;;;;;;;;7666339;23;20021;-53
2022/07/17 04:07:28;;;;;;;12.55;5.53;;;;;;;;;;7667000;23;20025;-49
2022/07/17 04:10:29;;;;;;;11.88;5.97;;;;;;;;;;7666873;23;20025;-52
2022/07/17 04:13:29;;;;;;;11.88;5.75;;;;;;;;;;7668711;23;20399;-54
2022/07/17 04:16:30;;;;;;;10.98;5.30;;;;;;;;;;7665204;23;20107;-54
2022/07/17 04:19:30;;;;;;;11.90;5.72;;;;;;;;;;7666580;23;20500;-50
2022/07/17 04:22:31;;;;;;;13.48;5.75;;;;;;;;;;7664488;23;20424;-50
2022/07/17 04:25:31;;;;;;;12.10;5.50;;;;;;;;;;7666213;23;20021;-58
2022/07/17 04:28:32;;;;;;;12.63;5.43;;;;;;;;;;7664298;23;20325;-52
2022/07/17 04:31:33;;;;;;;10.75;5.30;;;;;;;;;;7665372;23;20484;-56
2022/07/17 04:34:34;;;;;;;10.20;5.32;;;;;;;;;;7667470;23;20021;-48
2022/07/17 04:37:34;;;;;;;9.38;5.15;;;;;;;;;;7666229;23;20017;-56
2022/07/17 04:40:37;;;;;;;12.30;4.80;;;;;;;;;;7665804;23;20120;-55
2022/07/17 04:43:37;;;;;;;9.75;4.82;;;;;;;;;;7665784;23;20524;-56
2022/07/17 04:46:38;;;;;;;11.55;5.18;;;;;;;;;;7666341;23;20096;-57
2022/07/17 04:49:39;;;;;;;12.23;5.00;;;;;;;;;;7663560;23;20023;-58
2022/07/17 04:52:39;;;;;;;11.07;4.70;;;;;;;;;;7665932;23;20017;-54
2022/07/17 04:55:40;;;;;;;9.77;4.85;;;;;;;;;;7665840;23;20084;-50
2022/07/17 04:58:41;;;;;;;10.50;5.05;;;;;;;;;;7664526;23;20021;-56
2022/07/17 05:02:00;;;;;;;8.18;4.72;;;;;;;;;;7665368;23;20053;-52
2022/07/17 05:05:02;;;;;;;10.00;5.35;;;;;;;;;;7677267;23;20555;-51
2022/07/17 05:08:03;;;;;;;9.80;4.75;;;;;;;;;;7667628;23;20369;-56
2022/07/17 05:11:03;;;;;;;11.40;4.75;;;;;;;;;;7666525;23;20063;-55
2022/07/17 05:14:04;;;;;;;11.68;5.18;;;;;;;;;;7663109;23;20434;-54
2022/07/17 05:17:05;;;;;;;12.60;4.90;;;;;;;;;;7666438;23;20044;-53
2022/07/17 05:20:06;;;;;;;7.32;4.53;;;;;;;;;;7681037;23;20017;-55
2022/07/17 05:23:07;;;;;;;10.82;4.85;;;;;;;;;;7668719;23;20456;-48
2022/07/17 05:26:07;;;;;;;8.93;4.22;;;;;;;;;;7671074;23;20063;-49
2022/07/17 05:29:08;;;;;;;10.18;4.95;;;;;;;;;;7667963;23;20092;-57
2022/07/17 05:32:09;;;;;;;9.70;4.93;;;;;;;;;;7667108;23;20756;-54
2022/07/17 05:35:09;;;;;;;10.38;4.10;;;;;;;;;;7669285;23;20163;-49
2022/07/17 05:38:10;;;;;;;11.57;4.38;;;;;;;;;;7672975;23;20370;-54
2022/07/17 05:41:11;;;;;;;9.75;4.20;;;;;;;;;;7672763;23;20043;-51
2022/07/17 05:44:12;;;;;;;10.13;4.65;;;;;;;;;;7672967;23;20025;-57
2022/07/17 05:47:12;;;;;;;8.48;4.00;;;;;;;;;;7671847;23;20345;-51
2022/07/17 05:50:13;;;;;;;7.68;4.05;;;;;;;;;;7667307;23;20130;-53
2022/07/17 05:53:14;;;;;;;10.32;4.20;;;;;;;;;;7665808;23;20021;-55
2022/07/17 05:56:15;;;;;;;12.18;4.63;;;;;;;;;;7669484;23;20029;-58
2022/07/17 05:59:15;;;;;;;10.23;3.97;;;;;;;;;;7641279;23;20036;-55
2022/07/17 06:02:16;;;;;;;8.20;3.95;;;;;;;;;;7666599;23;20017;-58
2022/07/17 06:05:16;;;;;;;9.70;3.10;;;;;;;;;;7667466;23;20105;-53
2022/07/17 06:08:17;;;;;;;9.75;3.80;;;;;;;;;;7668244;23;20013;-57
2022/07/17 06:11:17;;;;;;;9.32;3.65;;;;;;;;;;7667522;23;20298;-49
2022/07/17 06:14:18;;;;;;;9.85;3.85;;;;;;;;;;7668864;23;20021;-52
2022/07/17 06:17:19;;;;;;;11.05;3.20;;;;;;;;;;7668998;23;20013;-52
2022/07/17 06:20:19;;;;;;;9.63;3.38;;;;;;;;;;7667930;23;20096;-56
2022/07/17 06:23:20;;;;;;;8.90;3.35;;;;;;;;;;7669119;23;20013;-51
2022/07/17 06:26:20;;;;;;;9.25;3.53;;;;;;;;;;7670996;23;20013;-48
2022/07/17 06:29:21;;;;;;;9.75;3.30;;;;;;;;;;7672698;23;20471;-48
2022/07/17 06:32:21;;;;;;;7.93;3.30;;;;;;;;;;7672229;23;20017;-51
2022/07/17 06:35:22;;;;;;;10.88;3.10;;;;;;;;;;7671411;23;20024;-52
2022/07/17 06:38:23;;;;;;;6.97;2.78;;;;;;;;;;7667288;23;20096;-48
2022/07/17 06:41:23;;;;;;;13.00;3.40;;;;;;;;;;7660078;23;20083;-54
2022/07/17 06:44:24;;;;;;;8.98;2.88;;;;;;;;;;7662242;23;20508;-48
2022/07/17 06:47:25;;;;;;;9.05;3.10;;;;;;;;;;7662983;23;20138;-57
2022/07/17 06:50:26;;;;;;;10.55;2.75;;;;;;;;;;7663063;23;20368;-56
2022/07/17 06:53:26;;;;;;;9.10;3.20;;;;;;;;;;7660593;23;20160;-55
2022/07/17 06:56:27;;;;;;;11.07;2.85;;;;;;;;;;7658917;23;20867;-52
2022/07/17 06:59:27;;;;;;;8.93;2.80;;;;;;;;;;7658126;23;20025;-48
2022/07/17 07:02:28;;;;;;;7.32;2.55;;;;;;;;;;7656683;23;20017;-53
2022/07/17 07:05:29;;;;;;;7.90;2.78;;;;;;;;;;7660309;23;20028;-48
2022/07/17 07:08:29;;;;;;;10.98;3.13;;;;;;;;;;7661189;23;20091;-51
2022/07/17 07:11:30;;;;;;;9.55;2.83;;;;;;;;;;7662180;23;20077;-48
2022/07/17 07:14:31;;;;;;;8.35;3.13;;;;;;;;;;7665440;23;20099;-48
2022/07/17 07:17:34;;;;;;;8.50;3.03;;;;;;;;;;7666923;23;20479;-50
2022/07/17 07:20:35;;;;;;;8.65;2.92;;;;;;;;;;7664498;23;20412;-48
2022/07/17 07:23:35;;;;;;;9.60;3.20;;;;;;;;;;7663721;23;20036;-48
2022/07/17 07:26:36;;;;;;;10.60;2.33;;;;;;;;;;7664111;23;20100;-47
2022/07/17 07:29:36;;;;;;;9.07;2.60;;;;;;;;;;7666390;23;20020;-48
2022/07/17 07:32:41;;;;;;;9.93;2.58;;;;;;;;;;7665228;23;20100;-50
2022/07/17 07:35:42;;;;;;;8.40;2.30;;;;;;;;;;7663883;23;20401;-53
2022/07/17 07:38:42;;;;;;;8.90;2.38;;;;;;;;;;7665974;23;20024;-57
2022/07/17 07:41:43;;;;;;;12.00;2.80;;;;;;;;;;7665205;23;20349;-57
2022/07/17 07:44:44;;;;;;;10.00;2.40;;;;;;;;;;7665556;23;20021;-48
2022/07/17 07:47:47;;;;;;;7.22;1.98;;;;;;;;;;7665802;23;20188;-57
2022/07/17 07:50:48;;;;;;;6.80;2.20;;;;;;;;;;7662818;23;20067;-55
2022/07/17 07:53:49;;;;;;;7.68;2.10;;;;;;;;;;7661260;23;20025;-55
2022/07/17 07:56:50;;;;;;;7.57;2.25;;;;;;;;;;7664132;23;20078;-54
2022/07/17 07:59:50;;;;;;;5.78;2.00;;;;;;;;;;7664157;23;20441;-57
2022/07/17 08:02:51;;;;;;;7.57;1.60;;;;;;;;;;7662331;23;20017;-50
2022/07/17 08:05:51;;;;;;;6.30;1.95;;;;;;;;;;7666728;23;20056;-49
2022/07/17 08:08:52;;;;;;;4.32;1.90;;;;;;;;;;7666281;23;20020;-58
2022/07/17 08:11:52;;;;;;;7.25;2.60;;;;;;;;;;7662381;23;20376;-58
2022/07/17 08:14:53;;;;;;;5.95;1.77;;;;;;;;;;7664076;23;20017;-56
2022/07/17 08:17:54;;;;;;;8.27;1.95;;;;;;;;;;7664388;23;20528;-56
2022/07/17 08:20:54;;;;;;;8.63;2.10;;;;;;;;;;7678847;23;20021;-58
2022/07/17 08:23:55;;;;;;;7.32;1.75;;;;;;;;;;7670246;23;20021;-57
2022/07/17 08:26:56;;;;;;;6.43;2.20;;;;;;;;;;7671539;23;20044;-50
2022/07/17 08:29:56;;;;;;;6.28;1.70;;;;;;;;;;7672112;23;20025;-59
2022/07/17 08:32:57;;;;;;;5.50;1.63;;;;;;;;;;7670141;23;20095;-56
2022/07/17 08:35:58;;;;;;;5.55;1.55;;;;;;;;;;7671695;23;20056;-54
2022/07/17 08:38:58;;;;;;;4.88;1.40;;;;;;;;;;7642540;23;20021;-56
2022/07/17 08:42:02;;;;;;;5.28;1.75;;;;;;;;;;7665170;23;20356;-58
2022/07/17 08:45:03;;;;;;;7.32;1.75;;;;;;;;;;7666618;23;20021;-58
2022/07/17 08:48:05;;;;;;;6.55;1.55;;;;;;;;;;7665694;23;20605;-58
2022/07/17 08:51:07;;;;;;;5.72;1.63;;;;;;;;;;7665649;23;20508;-57
2022/07/17 08:54:08;;;;;;;4.47;1.92;;;;;;;;;;7670326;23;20066;-57
2022/07/17 08:57:11;;;;;;;8.30;1.63;;;;;;;;;;7669631;23;20107;-48
2022/07/17 09:00:15;;;;;;;6.50;1.50;;;;;;;;;;7668068;23;20087;-57
2022/07/17 09:03:17;;;;;;;9.45;1.77;;;;;;;;;;7666228;23;20114;-52
2022/07/17 09:06:22;;;;;;;8.07;1.77;;;;;;;;;;7668584;23;20104;-55
2022/07/17 09:09:22;;;;;;;3.53;1.40;;;;;;;;;;7668565;23;20461;-52
2022/07/17 09:12:28;;;;;;;7.07;1.65;;;;;;;;;;7672810;23;20021;-48
2022/07/17 09:15:32;;;;;;;5.00;1.90;;;;;;;;;;7665879;23;20461;-52
2022/07/17 09:19:02;;;;;;;5.50;1.52;;;;;;;;;;7667908;23;20456;-51
2022/07/17 09:22:17;;;;;;;4.65;1.30;;;;;;;;;;7648803;23;20020;-58
2022/07/17 09:25:18;;;;;;;3.40;1.42;;;;;;;;;;7666491;23;20052;-53
2022/07/17 09:28:20;;;;;;;3.83;1.33;;;;;;;;;;7670426;23;20021;-53
2022/07/17 09:31:31;;;;;;;4.93;1.30;;;;;;;;;;7669090;23;20540;-52
2022/07/17 09:34:32;;;;;;;4.63;1.35;;;;;;;;;;7669181;23;20021;-48
2022/07/17 09:37:34;;;;;;;3.35;1.10;;;;;;;;;;7669307;23;20075;-49
2022/07/17 09:43:57;;;;;;;5.57;1.20;;;;;;;;;;7669713;23;20104;-55
2022/07/17 09:46:59;;;;;;;3.03;1.20;;;;;;;;;;7664748;23;20116;-51
2022/07/17 09:50:02;;;;;;;3.45;1.30;;;;;;;;;;7668602;23;20116;-49
2022/07/17 09:53:04;;;;;;;8.18;1.67;;;;;;;;;;7668746;23;20110;-49
2022/07/17 09:56:08;;;;;;;3.40;1.20;;;;;;;;;;7670025;23;20049;-52
2022/07/17 09:59:10;;;;;;;4.75;1.20;;;;;;;;;;7669222;23;20048;-54
2022/07/17 10:02:11;;;;;;;4.78;1.45;;;;;;;;;;7668825;23;20139;-48
2022/07/17 10:05:16;;;;;;;2.03;1.00;;;;;;;;;;7666812;23;20099;-48
2022/07/17 10:08:18;;;;;;;5.05;1.27;;;;;;;;;;7667635;23;20092;-48
2022/07/17 10:11:22;;;;;;;5.70;1.77;;;;;;;;;;7677659;23;20021;-53
2022/07/17 10:14:23;;;;;;;6.38;1.50;;;;;;;;;;7668890;23;20028;-50
2022/07/17 10:17:24;;;;;;;6.13;1.87;;;;;;;;;;7665821;23;20514;-48
2022/07/17 10:20:26;;;;;;;3.17;1.30;;;;;;;;;;7669371;23;20100;-48
2022/07/17 10:23:27;;;;;;;5.97;1.35;;;;;;;;;;7668548;23;20025;-55
2022/07/17 10:26:54;;;;;;;3.30;1.20;;;;;;;;;;7666987;23;20013;-51
2022/07/17 10:30:10;;;;;;;4.75;1.33;;;;;;;;;;7663445;23;20028;-50
2022/07/17 10:33:15;;;;;;;4.30;1.42;;;;;;;;;;7668250;23;20092;-48
2022/07/17 10:36:16;;;;;;;4.13;1.20;;;;;;;;;;7668953;23;20071;-48
2022/07/17 10:39:20;;;;;;;4.03;1.30;;;;;;;;;;7641729;23;20028;-48
2022/07/17 10:42:40;;;;;;;3.78;1.30;;;;;;;;;;7668219;23;20021;-49
2022/07/17 10:45:44;;;;;;;5.55;1.52;;;;;;;;;;7680314;23;20048;-47
2022/07/17 10:48:48;;;;;;;3.38;1.58;;;;;;;;;;7667740;23;20116;-48
2022/07/17 10:51:50;;;;;;;6.53;1.42;;;;;;;;;;7666061;23;20119;-54
2022/07/17 10:54:51;;;;;;;4.18;1.42;;;;;;;;;;7668707;23;20021;-47
2022/07/17 10:57:52;;;;;;;6.93;1.40;;;;;;;;;;7666856;23;20114;-49
2022/07/17 11:01:01;;;;;;;4.67;1.40;;;;;;;;;;7668245;23;20340;-48
2022/07/17 11:04:04;;;;;;;3.95;1.10;;;;;;;;;;7667825;23;20095;-48
2022/07/17 11:07:08;;;;;;;4.18;1.10;;;;;;;;;;7668231;23;20017;-50
2022/07/17 11:10:13;;;;;;;6.57;1.58;;;;;;;;;;7668523;23;20052;-48
2022/07/17 11:13:15;;;;;;;3.95;1.30;;;;;;;;;;7666809;23;20112;-49
2022/07/17 11:16:28;;;;;;;4.05;1.30;;;;;;;;;;7668814;23;20124;-49
2022/07/17 11:19:32;;;;;;;3.05;1.08;;;;;;;;;;7668137;23;20017;-49
2022/07/17 11:22:33;;;;;;;4.70;1.17;;;;;;;;;;7668069;23;20029;-54
2022/07/17 11:25:34;;;;;;;3.70;1.10;;;;;;;;;;7670383;23;20095;-52
2022/07/17 11:28:45;;;;;;;6.53;1.50;;;;;;;;;;7667877;23;20068;-48
2022/07/17 11:31:45;;;;;;;3.85;1.20;;;;;;;;;;7670109;23;20052;-57
2022/07/17 11:34:46;;;;;;;5.87;1.30;;;;;;;;;;7670351;23;20013;-55
2022/07/17 11:37:50;;;;;;;5.60;1.40;;;;;;;;;;7666587;23;20025;-50
2022/07/17 11:40:51;;;;;;;4.13;1.10;;;;;;;;;;7668444;23;20247;-48
2022/07/17 11:43:51;;;;;;;4.20;1.30;;;;;;;;;;7668529;23;20021;-59
2022/07/17 11:46:52;;;;;;;4.63;1.20;;;;;;;;;;7665788;23;20219;-58
2022/07/17 11:50:10;;;;;;;3.23;1.20;;;;;;;;;;7680552;23;20031;-52
2022/07/17 11:53:11;;;;;;;4.07;1.30;;;;;;;;;;7667810;23;20096;-52
2022/07/17 11:56:22;;;;;;;5.27;1.30;;;;;;;;;;7666916;23;20021;-48
2022/07/17 11:59:26;;;;;;;4.10;1.30;;;;;;;;;;7666931;23;20104;-48
2022/07/17 12:02:31;;;;;;;2.83;1.10;;;;;;;;;;7666410;23;20251;-53
2022/07/17 12:05:34;;;;;;;4.03;1.10;;;;;;;;;;7667848;23;20027;-54
2022/07/17 12:08:36;;;;;;;5.70;1.40;;;;;;;;;;7667180;23;20035;-51
2022/07/17 12:11:50;;;;;;;5.25;1.45;;;;;;;;;;7668445;23;20465;-50
2022/07/17 12:14:57;;;;;;;3.88;1.20;;;;;;;;;;7640985;23;20076;-51
2022/07/17 12:17:58;;;;;;;6.53;1.70;;;;;;;;;;7666828;23;20041;-56
2022/07/17 12:21:02;;;;;;;3.57;1.10;;;;;;;;;;7668665;23;20051;-49
2022/07/17 12:24:05;;;;;;;3.22;1.30;;;;;;;;;;7664517;23;20386;-50
2022/07/17 12:27:08;;;;;;;4.53;1.35;;;;;;;;;;7668920;23;20020;-48
2022/07/17 12:30:09;;;;;;;5.10;1.48;;;;;;;;;;7665447;23;20598;-53
2022/07/17 12:33:10;;;;;;;6.70;1.37;;;;;;;;;;7668558;23;20039;-51
2022/07/17 12:36:11;;;;;;;5.73;1.30;;;;;;;;;;7667596;23;20349;-52
2022/07/17 12:39:11;;;;;;;5.03;1.30;;;;;;;;;;7657506;23;20029;-55
2022/07/17 12:42:16;;;;;;;3.40;1.47;;;;;;;;;;7661752;23;20540;-56
2022/07/17 12:45:16;;;;;;;3.97;1.40;;;;;;;;;;7654882;23;20029;-57
2022/07/17 12:48:17;;;;;;;5.03;1.23;;;;;;;;;;7658808;23;20068;-55
2022/07/17 12:51:18;;;;;;;4.73;1.80;;;;;;;;;;7631582;23;20017;-54
2022/07/17 12:54:19;;;;;;;5.53;1.30;;;;;;;;;;7634055;23;20052;-58
2022/07/17 12:57:19;;;;;;;5.60;1.53;;;;;;;;;;7660921;23;20021;-56
2022/07/17 13:00:20;;;;;;;5.23;1.50;;;;;;;;;;7669336;23;20437;-50
2022/07/17 13:03:21;;;;;;;4.50;1.50;;;;;;;;;;7660419;23;20025;-57
2022/07/17 13:06:22;;;;;;;5.63;1.60;;;;;;;;;;7657254;23;20472;-54
2022/07/17 13:09:22;;;;;;;5.03;1.40;;;;;;;;;;7628083;23;20124;-54
2022/07/17 13:12:23;;;;;;;3.90;1.63;;;;;;;;;;7658658;23;20045;-55
2022/07/17 13:15:24;;;;;;;6.73;1.20;;;;;;;;;;7658793;23;20251;-55
2022/07/17 13:18:25;;;;;;;5.50;1.40;;;;;;;;;;7633467;23;20071;-55
2022/07/17 13:21:25;;;;;;;3.97;1.37;;;;;;;;;;7659354;23;20041;-58
2022/07/17 13:24:27;;;;;;;5.97;1.37;;;;;;;;;;7660437;23;20395;-57
2022/07/17 13:27:28;;;;;;;4.10;1.50;;;;;;;;;;7633684;23;20029;-55
2022/07/17 13:30:28;;;;;;;4.10;1.50;;;;;;;;;;7605715;23;20025;-59
2022/07/17 13:33:30;;;;;;;4.37;1.50;;;;;;;;;;7609787;23;20465;-54
2022/07/17 13:36:31;;;;;;;4.47;1.10;;;;;;;;;;7659583;23;20800;-57
2022/07/17 13:39:33;;;;;;;4.53;1.30;;;;;;;;;;7660514;23;20028;-58
2022/07/17 13:42:34;;;;;;;5.47;1.50;;;;;;;;;;7663143;23;20457;-57
2022/07/17 13:45:34;;;;;;;7.03;1.63;;;;;;;;;;7635532;23;20035;-50
2022/07/17 13:48:35;;;;;;;4.93;1.25;;;;;;;;;;7661357;23;20024;-47
2022/07/17 13:51:36;;;;;;;5.50;1.33;;;;;;;;;;7661816;23;20025;-58
2022/07/17 13:54:37;;;;;;;3.72;1.20;;;;;;;;;;7675074;23;20524;-56
2022/07/17 13:57:38;;;;;;;4.00;1.40;;;;;;;;;;7644998;23;20028;-58
2022/07/17 14:00:40;;;;;;;3.70;1.20;;;;;;;;;;7659330;23;20028;-58
2022/07/17 14:03:40;;;;;;;;;;;;;;;;;;7663904;23;20023;-57
2022/07/17 14:06:41;;;;;;;4.13;1.23;;;;;;;;;;7661728;23;19991;-52
2022/07/17 14:09:42;;;;;;;3.63;1.30;;;;;;;;;;7659044;23;20036;-52
2022/07/17 14:12:43;;;;;;;5.77;1.73;;;;;;;;;;7661559;23;20314;-56
2022/07/17 14:15:45;;;;;;;4.47;1.20;;;;;;;;;;7658608;23;20133;-57
2022/07/17 14:19:00;;;;;;;4.55;1.35;;;;;;;;;;7656927;23;20032;-49
2022/07/17 14:22:02;;;;;;;5.22;1.50;;;;;;;;;;7662772;23;20091;-57
2022/07/17 14:25:03;;;;;;;3.28;1.40;;;;;;;;;;7661867;23;20140;-58
2022/07/17 14:28:04;;;;;;;3.43;1.10;;;;;;;;;;7661840;23;20027;-53
2022/07/17 14:31:04;;;;;;;3.15;1.20;;;;;;;;;;7657947;23;20016;-47
2022/07/17 14:34:05;;;;;;;3.20;1.00;;;;;;;;;;7661584;23;20024;-58
2022/07/17 14:37:08;;;;;;;4.97;1.67;;;;;;;;;;7633882;23;20021;-57
2022/07/17 14:40:11;;;;;;;5.90;1.43;;;;;;;;;;7657295;23;20028;-57
2022/07/17 14:43:12;;;;;;;4.25;1.70;;;;;;;;;;7662431;23;20901;-51
2022/07/17 14:46:12;;;;;;;3.43;1.20;;;;;;;;;;7660544;23;20021;-48
2022/07/17 14:49:13;;;;;;;2.97;1.17;;;;;;;;;;7659656;23;20480;-56
2022/07/17 14:52:14;;;;;;;4.57;1.30;;;;;;;;;;7661631;23;20254;-52
2022/07/17 14:55:14;;;;;;;3.07;1.10;;;;;;;;;;7661922;23;20095;-51
2022/07/17 14:58:15;;;;;;;3.27;1.10;;;;;;;;;;7659253;23;20025;-52
2022/07/17 15:01:16;;;;;;;4.17;1.27;;;;;;;;;;7659507;23;20054;-56
2022/07/17 15:04:16;;;;;;;4.00;1.20;;;;;;;;;;7661140;23;20024;-53
2022/07/17 15:07:17;;;;;;;4.33;1.33;;;;;;;;;;7660818;23;20471;-52
2022/07/17 15:10:18;;;;;;;2.87;1.00;;;;;;;;;;7660881;23;20021;-55
2022/07/17 15:13:18;;;;;;;4.73;1.30;;;;;;;;;;7660205;23;20016;-56
2022/07/17 15:16:19;;;;;;;3.00;1.30;;;;;;;;;;7659369;23;20017;-57
2022/07/17 15:19:20;;;;;;;3.53;1.40;;;;;;;;;;7657445;23;20075;-52
2022/07/17 15:22:20;;;;;;;5.00;1.00;;;;;;;;;;7660425;23;20021;-50
2022/07/17 15:25:22;;;;;;;4.87;1.10;;;;;;;;;;7658530;23;20080;-55
2022/07/17 15:28:22;;;;;;;;;;;;;;;;;;7659941;23;20453;-49
2022/07/17 15:31:23;;;;;;;3.33;1.30;;;;;;;;;;7657883;23;19978;-55
2022/07/17 15:34:24;;;;;;;4.13;1.13;;;;;;;;;;7659387;23;20017;-54
2022/07/17 15:37:24;;;;;;;4.10;1.20;;;;;;;;;;7659573;23;20021;-56
2022/07/17 15:40:25;;;;;;;2.93;1.30;;;;;;;;;;7659125;23;20096;-55
2022/07/17 15:43:26;;;;;;;3.55;1.40;;;;;;;;;;7661917;23;20017;-51
2022/07/17 15:46:27;;;;;;;3.27;1.10;;;;;;;;;;7661050;23;20103;-54
2022/07/17 15:49:28;;;;;;;5.77;1.50;;;;;;;;;;7658387;23;20039;-57
2022/07/17 15:52:29;;;;;;;5.20;1.33;;;;;;;;;;7661438;23;20021;-54
2022/07/17 15:55:30;;;;;;;6.23;1.40;;;;;;;;;;7660161;23;20052;-57
2022/07/17 15:58:30;;;;;;;3.57;1.27;;;;;;;;;;7659299;23;20079;-59
2022/07/17 16:01:31;;;;;;;3.97;1.40;;;;;;;;;;7657658;23;20540;-57
2022/07/17 16:04:32;;;;;;;3.90;1.30;;;;;;;;;;7660299;23;20904;-59
2022/07/17 16:07:33;;;;;;;4.20;1.40;;;;;;;;;;7660091;23;20025;-53
2022/07/17 16:10:33;;;;;;;3.53;1.40;;;;;;;;;;7660268;23;20020;-55
2022/07/17 16:13:34;;;;;;;2.90;1.40;;;;;;;;;;7674355;23;20027;-55
2022/07/17 16:16:35;;;;;;;2.53;1.20;;;;;;;;;;7660574;23;20793;-56
2022/07/17 16:19:36;;;;;;;4.33;1.50;;;;;;;;;;7659754;23;20100;-52
2022/07/17 16:22:36;;;;;;;3.20;1.20;;;;;;;;;;7661590;23;20891;-57
2022/07/17 16:25:38;;;;;;;3.67;1.20;;;;;;;;;;7660897;23;20795;-56
2022/07/17 16:28:38;;;;;;;3.72;1.25;;;;;;;;;;7659571;23;20075;-50
2022/07/17 16:31:41;;;;;;;4.43;1.23;;;;;;;;;;7661435;23;20464;-56
2022/07/17 16:34:41;;;;;;;4.22;1.40;;;;;;;;;;7635018;23;20021;-56
2022/07/17 16:37:42;;;;;;;4.03;1.43;;;;;;;;;;7660500;23;20442;-56
2022/07/17 16:40:44;;;;;;;4.17;1.30;;;;;;;;;;7659740;23;20124;-58
2022/07/17 16:43:44;;;;;;;;;;;;;;;;;;7661303;23;20021;-56
2022/07/17 16:46:45;;;;;;;4.15;1.23;;;;;;;;;;7660670;23;20240;-49
2022/07/17 16:49:45;;;;;;;3.50;1.40;;;;;;;;;;7658662;23;20017;-52
2022/07/17 16:52:46;;;;;;;4.67;1.40;;;;;;;;;;7661226;23;20095;-53
2022/07/17 16:55:46;;;;;;;4.17;1.30;;;;;;;;;;7660857;23;20858;-56
2022/07/17 16:58:47;;;;;;;4.37;1.73;;;;;;;;;;7656232;23;20877;-56
2022/07/17 17:01:48;;;;;;;4.07;1.60;;;;;;;;;;7634904;23;20265;-56
2022/07/17 17:04:49;;;;;;;4.20;1.50;;;;;;;;;;7659492;23;20049;-54
2022/07/17 17:07:50;;;;;;;5.38;1.30;;;;;;;;;;7659510;23;20282;-50
2022/07/17 17:10:50;;;;;;;3.17;1.33;;;;;;;;;;7632638;23;20898;-58
2022/07/17 17:13:51;;;;;;;3.17;1.30;;;;;;;;;;7663282;23;20021;-57
2022/07/17 17:16:52;;;;;;;7.40;1.70;;;;;;;;;;7662351;23;20251;-56
2022/07/17 17:19:53;;;;;;;3.40;1.50;;;;;;;;;;7661421;23;20063;-52
2022/07/17 17:22:53;;;;;;;3.63;1.33;;;;;;;;;;7663327;23;20021;-53
2022/07/17 17:25:54;;;;;;;3.77;1.30;;;;;;;;;;7662428;23;20025;-58
2022/07/17 17:28:54;;;;;;;5.23;1.50;;;;;;;;;;7647734;23;20028;-54
2022/07/17 17:31:55;;;;;;;4.40;1.50;;;;;;;;;;7663114;23;20024;-55
2022/07/17 17:34:56;;;;;;;4.67;1.30;;;;;;;;;;7663094;23;20104;-57
2022/07/17 17:37:56;;;;;;;4.47;1.53;;;;;;;;;;7635896;23;20349;-50
2022/07/17 17:40:58;;;;;;;2.83;1.13;;;;;;;;;;7660703;23;20333;-51
2022/07/17 17:43:59;;;;;;;6.95;1.80;;;;;;;;;;7662672;23;20048;-53
2022/07/17 17:46:59;;;;;;;3.40;1.40;;;;;;;;;;7660972;23;20017;-55
2022/07/17 17:50:00;;;;;;;4.73;1.40;;;;;;;;;;7661215;23;20404;-56
2022/07/17 17:53:00;;;;;;;4.00;1.20;;;;;;;;;;7655658;23;20048;-49
2022/07/17 17:56:01;;;;;;;5.57;1.43;;;;;;;;;;7661582;23;20021;-59
2022/07/17 17:59:02;;;;;;;5.20;1.33;;;;;;;;;;7660951;23;20460;-49
2022/07/17 18:02:05;;;;;;;4.93;1.50;;;;;;;;;;7662581;23;20017;-57
2022/07/17 18:05:06;;;;;;;5.22;1.60;;;;;;;;;;7675054;23;20021;-58
2022/07/17 18:08:07;;;;;;;3.53;1.40;;;;;;;;;;7661931;23;20079;-55
2022/07/17 18:11:07;;;;;;;3.37;1.40;;;;;;;;;;7661649;23;20867;-58
2022/07/17 18:14:09;;;;;;;4.33;1.60;;;;;;;;;;7663087;23;20091;-50